Time;durP1;ratioP1;P1;durP2;ratioP2;P2;SDS_P1;SDS_P2;PMS_P1;PMS_P2;Temp;Humidity;BMP_temperature;BMP_pressure;BME280_temperature;BME280_humidity;BME280_pressure;Samples;Min_cycle;Max_cycle;Signal;HPM_P1;HPM_P2
2022/03/06 00:00:08;;;;;;;25.90;11.10;;;0.40;67.60;;;;;;4980660;28;20203;-78
2022/03/06 00:02:35;;;;;;;27.77;11.75;;;0.50;67.30;;;;;;4978266;28;20247;-77
2022/03/06 00:05:01;;;;;;;27.08;11.80;;;0.60;67.20;;;;;;4971579;28;20191;-80
2022/03/06 00:07:27;;;;;;;24.25;11.48;;;0.60;67.20;;;;;;4969936;28;20291;-79
2022/03/06 00:09:52;;;;;;;27.73;12.70;;;0.70;67.00;;;;;;4974795;28;20210;-79
2022/03/06 00:12:18;;;;;;;26.40;12.47;;;0.80;66.60;;;;;;4975691;28;20211;-79
2022/03/06 00:14:44;;;;;;;23.03;11.70;;;0.70;66.10;;;;;;4973268;28;20759;-79
2022/03/06 00:17:10;;;;;;;26.50;12.33;;;0.80;66.40;;;;;;4974815;28;20183;-79
2022/03/06 00:19:36;;;;;;;22.50;11.20;;;0.80;66.70;;;;;;4972351;28;20212;-78
2022/03/06 00:22:02;;;;;;;22.67;11.07;;;0.80;66.60;;;;;;4978197;28;20191;-79
2022/03/06 00:24:28;;;;;;;27.10;13.07;;;0.80;66.40;;;;;;4978353;28;20183;-77
2022/03/06 00:26:54;;;;;;;28.90;12.83;;;0.80;66.90;;;;;;4975393;28;20206;-79
2022/03/06 00:29:20;;;;;;;28.57;12.73;;;0.70;67.00;;;;;;4973221;28;20533;-79
2022/03/06 00:31:45;;;;;;;29.47;12.70;;;0.70;67.20;;;;;;4982383;28;20249;-78
2022/03/06 00:34:11;;;;;;;25.80;11.20;;;0.60;67.50;;;;;;4974657;28;20469;-78
2022/03/06 00:36:37;;;;;;;34.03;11.13;;;0.60;67.70;;;;;;4974324;28;20184;-77
2022/03/06 00:39:04;;;;;;;25.53;11.20;;;0.60;68.00;;;;;;4977449;28;20218;-78
2022/03/06 00:41:30;;;;;;;25.85;11.32;;;0.50;68.20;;;;;;4972391;28;20286;-71
2022/03/06 00:43:55;;;;;;;24.80;11.57;;;0.50;68.50;;;;;;4971034;28;20337;-78
2022/03/06 00:46:21;;;;;;;25.37;11.60;;;0.40;68.50;;;;;;4971909;28;20441;-77
2022/03/06 00:48:47;;;;;;;27.47;12.07;;;0.30;68.80;;;;;;4972642;28;20219;-79
2022/03/06 00:51:14;;;;;;;29.93;11.27;;;0.30;68.90;;;;;;4969281;28;20483;-79
2022/03/06 00:53:42;;;;;;;24.40;10.82;;;0.20;68.90;;;;;;4970808;28;20679;-78
2022/03/06 00:56:08;;;;;;;27.17;12.48;;;0.20;69.10;;;;;;4972634;28;20183;-76
2022/03/06 00:58:33;;;;;;;25.23;11.23;;;0.20;68.90;;;;;;4966876;28;20274;-78
2022/03/06 01:00:59;;;;;;;31.73;13.27;;;0.20;68.80;;;;;;4963675;28;20182;-76
2022/03/06 01:03:25;;;;;;;26.00;11.20;;;0.20;68.80;;;;;;4964542;28;20187;-77
2022/03/06 01:05:51;;;;;;;28.43;11.17;;;0.10;69.10;;;;;;4968104;28;20191;-77
2022/03/06 01:08:17;;;;;;;33.60;13.00;;;0.10;69.20;;;;;;4967431;28;20461;-76
2022/03/06 01:10:45;;;;;;;24.83;12.00;;;0.10;69.20;;;;;;4972959;28;20438;-78
2022/03/06 01:13:11;;;;;;;29.15;11.48;;;0.00;69.40;;;;;;4963065;28;20521;-76
2022/03/06 01:15:37;;;;;;;26.10;10.70;;;0.10;69.40;;;;;;4971054;28;20210;-76
2022/03/06 01:18:08;;;;;;;28.30;11.50;;;0.00;69.50;;;;;;4971590;28;20214;-77
2022/03/06 01:20:38;;;;;;;32.22;13.00;;;-0.10;69.80;;;;;;4972287;28;20831;-76
2022/03/06 01:23:05;;;;;;;24.42;10.45;;;-0.10;69.90;;;;;;4966286;28;20187;-77
2022/03/06 01:25:32;;;;;;;29.45;12.15;;;-0.10;70.40;;;;;;4971919;28;20266;-77
2022/03/06 01:27:57;;;;;;;22.17;10.43;;;-0.10;70.70;;;;;;4967493;28;20187;-78
2022/03/06 01:30:24;;;;;;;26.77;10.83;;;-0.20;70.50;;;;;;4971136;28;20245;-78
2022/03/06 01:32:50;;;;;;;33.85;11.05;;;-0.20;70.50;;;;;;4973241;28;20203;-78
2022/03/06 01:35:17;;;;;;;21.52;10.35;;;-0.20;70.80;;;;;;4970650;28;20270;-78
2022/03/06 01:37:42;;;;;;;24.67;10.88;;;-0.20;71.10;;;;;;4975267;28;20258;-77
2022/03/06 01:40:10;;;;;;;27.83;11.20;;;-0.20;71.10;;;;;;4979623;28;20227;-76
2022/03/06 01:42:39;;;;;;;25.27;10.68;;;-0.30;71.30;;;;;;4986133;28;20422;-77
2022/03/06 01:45:08;;;;;;;23.73;10.93;;;-0.30;71.60;;;;;;4979234;28;20642;-77
2022/03/06 01:47:42;;;;;;;32.85;10.55;;;-0.30;71.70;;;;;;4977638;28;20183;-77
2022/03/06 01:50:15;;;;;;;23.48;11.80;;;-0.30;71.80;;;;;;4971143;28;20206;-78
2022/03/06 01:52:42;;;;;;;23.92;11.32;;;-0.30;72.10;;;;;;4981465;28;20227;-78
2022/03/06 01:55:08;;;;;;;23.52;11.00;;;-0.30;72.10;;;;;;4981572;28;20180;-77
2022/03/06 01:57:34;;;;;;;27.75;10.85;;;-0.30;72.30;;;;;;4982714;28;20179;-77
2022/03/06 02:00:07;;;;;;;23.43;9.80;;;-0.30;72.40;;;;;;4975652;28;20875;-78
2022/03/06 02:02:33;;;;;;;27.45;11.55;;;-0.40;72.60;;;;;;4954903;28;20219;-77
2022/03/06 02:05:00;;;;;;;25.45;10.85;;;-0.40;72.90;;;;;;4987986;28;20259;-78
2022/03/06 02:07:26;;;;;;;22.70;11.27;;;-0.40;73.20;;;;;;4989424;28;20198;-77
2022/03/06 02:09:53;;;;;;;23.92;10.52;;;-0.50;73.20;;;;;;4966468;28;20223;-77
2022/03/06 02:12:21;;;;;;;27.80;11.02;;;-0.50;73.30;;;;;;4970041;28;20230;-78
2022/03/06 02:14:48;;;;;;;32.22;11.85;;;-0.50;73.30;;;;;;4962484;28;20195;-78
2022/03/06 02:17:14;;;;;;;26.27;10.60;;;-0.50;73.70;;;;;;4975258;28;20183;-78
2022/03/06 02:19:51;;;;;;;24.93;11.30;;;-0.50;73.60;;;;;;4968900;28;20629;-76
2022/03/06 02:22:18;;;;;;;30.58;11.23;;;-0.60;74.00;;;;;;4960124;28;20222;-76
2022/03/06 02:24:44;;;;;;;22.33;9.55;;;-0.50;74.20;;;;;;4967787;28;20199;-77
2022/03/06 02:27:10;;;;;;;25.33;11.33;;;-0.60;74.20;;;;;;4973271;28;20191;-77
2022/03/06 02:29:39;;;;;;;24.30;11.10;;;-0.50;74.50;;;;;;4973037;28;20239;-78
2022/03/06 02:32:08;;;;;;;29.42;11.20;;;-0.60;74.60;;;;;;4973849;28;20976;-77
2022/03/06 02:34:34;;;;;;;21.92;10.30;;;-0.60;74.80;;;;;;4967479;28;20190;-77
2022/03/06 02:37:00;;;;;;;24.02;11.02;;;-0.50;74.90;;;;;;4972029;28;20198;-76
2022/03/06 02:39:26;;;;;;;24.63;10.77;;;-0.50;74.90;;;;;;4971610;28;20196;-75
2022/03/06 02:41:52;;;;;;;25.75;10.98;;;-0.50;74.90;;;;;;4973323;28;20680;-78
2022/03/06 02:44:18;;;;;;;19.67;9.63;;;-0.60;74.90;;;;;;4968200;28;20215;-77
2022/03/06 02:46:48;;;;;;;23.50;9.73;;;-0.60;74.80;;;;;;4968652;28;20215;-77
2022/03/06 02:49:14;;;;;;;28.92;11.32;;;-0.60;74.90;;;;;;4964553;28;20230;-76
2022/03/06 02:51:41;;;;;;;19.80;9.88;;;-0.60;74.90;;;;;;4975137;28;20183;-76
2022/03/06 02:54:07;;;;;;;26.67;10.48;;;-0.60;75.10;;;;;;4972933;28;20282;-76
2022/03/06 02:56:34;;;;;;;26.02;10.23;;;-0.60;75.20;;;;;;4969921;28;20650;-76
2022/03/06 02:58:59;;;;;;;26.63;10.98;;;-0.60;75.10;;;;;;4975341;28;20231;-76
2022/03/06 03:01:25;;;;;;;30.60;11.50;;;-0.80;75.20;;;;;;4974418;28;20191;-77
2022/03/06 03:03:51;;;;;;;26.03;10.73;;;-0.80;75.40;;;;;;4969094;28;20612;-77
2022/03/06 03:06:17;;;;;;;29.65;10.60;;;-0.90;75.90;;;;;;4976519;28;20186;-77
2022/03/06 03:08:46;;;;;;;33.58;12.30;;;-0.80;75.90;;;;;;4976576;28;20254;-78
2022/03/06 03:11:12;;;;;;;25.15;10.82;;;-0.90;75.90;;;;;;4974682;28;20183;-78
2022/03/06 03:13:38;;;;;;;26.67;10.90;;;-0.90;76.10;;;;;;4974700;28;20215;-78
2022/03/06 03:16:06;;;;;;;24.83;10.40;;;-0.90;76.10;;;;;;4974535;28;20686;-78
2022/03/06 03:18:31;;;;;;;23.27;10.88;;;-0.90;76.20;;;;;;4973545;28;20443;-79
2022/03/06 03:20:57;;;;;;;25.90;11.43;;;-0.90;76.40;;;;;;4973519;28;20210;-78
2022/03/06 03:23:23;;;;;;;26.53;11.67;;;-0.90;76.50;;;;;;4974656;28;20271;-78
2022/03/06 03:25:49;;;;;;;24.33;12.10;;;-0.90;76.80;;;;;;4974529;28;20430;-77
2022/03/06 03:28:14;;;;;;;32.93;12.10;;;-0.90;76.70;;;;;;4970813;28;20210;-77
2022/03/06 03:30:40;;;;;;;24.03;10.03;;;-0.90;76.50;;;;;;4975531;28;20441;-78
2022/03/06 03:33:06;;;;;;;23.87;11.27;;;-0.90;76.80;;;;;;4973124;28;20203;-78
2022/03/06 03:35:31;;;;;;;24.07;10.87;;;-0.90;76.80;;;;;;4974649;28;20652;-76
2022/03/06 03:37:57;;;;;;;26.90;11.17;;;-0.90;76.80;;;;;;4970202;28;20230;-78
2022/03/06 03:40:23;;;;;;;26.00;10.83;;;-0.90;77.00;;;;;;4989383;28;20559;-78
2022/03/06 03:42:49;;;;;;;23.37;10.77;;;-0.90;77.10;;;;;;4975072;28;20211;-78
2022/03/06 03:45:15;;;;;;;27.70;11.43;;;-1.00;77.30;;;;;;4974229;28;20423;-78
2022/03/06 03:47:41;;;;;;;22.40;10.83;;;-1.00;77.30;;;;;;4975094;28;20431;-78
2022/03/06 03:50:07;;;;;;;28.03;11.33;;;-1.00;77.40;;;;;;4974419;28;20198;-78
2022/03/06 03:52:32;;;;;;;25.98;11.18;;;-1.00;77.40;;;;;;4968147;28;20545;-78
2022/03/06 03:54:58;;;;;;;30.73;11.30;;;-1.10;77.70;;;;;;4970804;28;20771;-77
2022/03/06 03:57:24;;;;;;;24.53;10.20;;;-1.10;77.80;;;;;;4988159;28;20184;-78
2022/03/06 03:59:50;;;;;;;27.77;10.73;;;-1.10;77.70;;;;;;4970125;28;20258;-77
2022/03/06 04:02:16;;;;;;;24.75;10.73;;;-1.10;77.70;;;;;;4973049;28;20704;-77
2022/03/06 04:04:42;;;;;;;29.40;11.03;;;-1.10;77.80;;;;;;4973098;28;20187;-76
2022/03/06 04:07:07;;;;;;;25.50;10.70;;;-1.20;78.00;;;;;;4973213;28;20261;-77
2022/03/06 04:09:33;;;;;;;29.17;11.00;;;-1.20;78.00;;;;;;4973609;28;20458;-76
2022/03/06 04:11:59;;;;;;;28.50;11.83;;;-1.20;78.10;;;;;;4975025;28;20193;-78
2022/03/06 04:14:25;;;;;;;26.55;11.63;;;-1.20;78.30;;;;;;4983226;28;20194;-78
2022/03/06 04:16:51;;;;;;;31.52;10.75;;;-1.10;78.40;;;;;;4972081;28;20202;-78
2022/03/06 04:19:17;;;;;;;26.47;11.47;;;-1.10;78.30;;;;;;4978803;28;20194;-78
2022/03/06 04:21:43;;;;;;;30.20;11.43;;;-1.10;78.30;;;;;;4975131;28;20175;-78
2022/03/06 04:24:08;;;;;;;27.30;12.20;;;-1.10;78.30;;;;;;4984581;28;20421;-77
2022/03/06 04:26:35;;;;;;;28.77;11.70;;;-1.10;78.30;;;;;;4973410;28;20187;-75
2022/03/06 04:29:02;;;;;;;25.20;10.13;;;-1.10;78.10;;;;;;4975827;28;20207;-77
2022/03/06 04:31:28;;;;;;;22.48;10.45;;;-1.10;78.30;;;;;;4982594;28;20186;-76
2022/03/06 04:33:54;;;;;;;29.35;12.05;;;-1.20;78.30;;;;;;4977344;28;20214;-77
2022/03/06 04:36:20;;;;;;;28.08;11.82;;;-1.10;78.40;;;;;;4975997;28;20211;-79
2022/03/06 04:38:46;;;;;;;22.15;10.45;;;-1.10;78.40;;;;;;4983621;28;20844;-77
2022/03/06 04:41:12;;;;;;;25.57;12.37;;;-1.20;78.70;;;;;;4974768;28;20216;-80
2022/03/06 04:43:38;;;;;;;28.27;13.23;;;-1.30;78.90;;;;;;4973946;28;20987;-79
2022/03/06 04:46:04;;;;;;;31.35;12.05;;;-1.30;79.30;;;;;;4973763;28;20449;-78
2022/03/06 04:48:30;;;;;;;25.65;11.52;;;-1.20;79.50;;;;;;4966049;28;20205;-77
2022/03/06 04:50:55;;;;;;;28.77;12.03;;;-1.30;79.30;;;;;;4972057;28;20612;-79
2022/03/06 04:53:21;;;;;;;24.40;11.97;;;-1.30;79.30;;;;;;4976058;28;20489;-77
2022/03/06 04:55:47;;;;;;;26.03;12.00;;;-1.30;79.70;;;;;;4977179;28;20186;-77
2022/03/06 04:58:13;;;;;;;23.70;11.00;;;-1.30;79.90;;;;;;4977309;28;20453;-76
2022/03/06 05:00:39;;;;;;;23.00;11.57;;;-1.30;79.90;;;;;;4976729;28;20234;-77
2022/03/06 05:03:04;;;;;;;25.83;10.97;;;-1.30;80.00;;;;;;4980913;28;20526;-76
2022/03/06 05:05:30;;;;;;;30.23;10.97;;;-1.30;80.20;;;;;;4972205;28;20198;-77
2022/03/06 05:07:56;;;;;;;30.43;12.47;;;-1.30;80.00;;;;;;4986137;28;20182;-79
2022/03/06 05:10:22;;;;;;;29.50;11.43;;;-1.30;80.30;;;;;;4981727;28;20200;-78
2022/03/06 05:12:47;;;;;;;26.60;12.20;;;-1.40;80.20;;;;;;4971525;28;20210;-78
2022/03/06 05:15:13;;;;;;;22.83;10.10;;;-1.40;80.30;;;;;;4975290;28;20214;-77
2022/03/06 05:17:40;;;;;;;28.52;11.88;;;-1.40;80.30;;;;;;4973705;28;20357;-78
2022/03/06 05:20:08;;;;;;;30.08;12.52;;;-1.40;80.30;;;;;;4966221;28;20278;-77
2022/03/06 05:22:34;;;;;;;25.80;12.00;;;-1.40;80.30;;;;;;4965649;28;20203;-78
2022/03/06 05:25:00;;;;;;;24.53;11.07;;;-1.40;80.50;;;;;;4972425;28;20187;-77
2022/03/06 05:27:27;;;;;;;28.85;12.48;;;-1.50;80.60;;;;;;4975667;28;20422;-77
2022/03/06 05:29:53;;;;;;;27.30;11.30;;;-1.40;80.60;;;;;;4978243;28;20227;-78
2022/03/06 05:32:18;;;;;;;30.60;12.10;;;-1.40;80.60;;;;;;4983687;28;20209;-77
2022/03/06 05:34:44;;;;;;;22.00;11.50;;;-1.40;80.60;;;;;;4974121;28;20524;-76
2022/03/06 05:37:10;;;;;;;26.37;10.80;;;-1.40;80.60;;;;;;4974022;28;20195;-77
2022/03/06 05:39:36;;;;;;;29.37;12.53;;;-1.40;80.80;;;;;;4975858;28;20311;-77
2022/03/06 05:42:02;;;;;;;26.93;12.67;;;-1.30;80.60;;;;;;4975933;28;20187;-76
2022/03/06 05:44:28;;;;;;;25.02;10.48;;;-1.20;80.20;;;;;;4973028;28;20183;-77
2022/03/06 05:46:54;;;;;;;28.70;12.00;;;-1.20;80.30;;;;;;4978271;28;20341;-77
2022/03/06 05:49:19;;;;;;;32.63;13.60;;;-1.10;80.20;;;;;;4976513;28;20442;-77
2022/03/06 05:51:45;;;;;;;23.93;10.93;;;-1.00;79.90;;;;;;4977715;28;20226;-77
2022/03/06 05:54:11;;;;;;;28.57;13.20;;;-1.00;79.60;;;;;;4974891;28;20187;-79
2022/03/06 05:56:39;;;;;;;23.90;11.68;;;-0.90;79.30;;;;;;4970278;28;20438;-77
2022/03/06 05:59:06;;;;;;;30.48;11.93;;;-0.90;79.20;;;;;;4981619;28;20222;-77
2022/03/06 06:01:32;;;;;;;31.90;11.75;;;-0.90;79.30;;;;;;4985531;28;20183;-77
2022/03/06 06:03:59;;;;;;;26.15;11.88;;;-0.80;79.00;;;;;;4978384;28;20206;-77
2022/03/06 06:06:26;;;;;;;25.10;11.55;;;-0.70;78.60;;;;;;4978749;28;20183;-78
2022/03/06 06:08:53;;;;;;;27.42;11.30;;;-0.80;78.40;;;;;;4965760;28;20361;-76
2022/03/06 06:11:19;;;;;;;24.17;11.52;;;-0.80;78.60;;;;;;4975249;28;20183;-76
2022/03/06 06:13:45;;;;;;;28.60;12.37;;;-0.70;78.60;;;;;;4963640;28;20364;-77
2022/03/06 06:16:11;;;;;;;25.98;10.68;;;-0.70;78.30;;;;;;4974677;28;20936;-77
2022/03/06 06:18:37;;;;;;;29.88;11.85;;;-0.70;78.30;;;;;;4973325;28;20203;-78
2022/03/06 06:21:04;;;;;;;27.07;12.90;;;-0.70;78.10;;;;;;4973890;28;20673;-77
2022/03/06 06:23:30;;;;;;;23.25;11.60;;;-0.70;78.30;;;;;;4971394;28;20187;-79
2022/03/06 06:25:56;;;;;;;29.57;12.17;;;-0.80;78.40;;;;;;4972552;28;20187;-78
2022/03/06 06:28:22;;;;;;;22.63;10.95;;;-0.70;78.90;;;;;;4968887;28;20969;-77
2022/03/06 06:30:48;;;;;;;29.47;12.70;;;-0.70;79.00;;;;;;4974044;28;20203;-77
2022/03/06 06:33:13;;;;;;;32.33;12.90;;;-0.70;79.20;;;;;;4985864;28;20461;-77
2022/03/06 06:35:39;;;;;;;28.73;11.93;;;-0.70;79.30;;;;;;4975863;28;20283;-78
2022/03/06 06:38:06;;;;;;;24.97;11.63;;;-0.80;79.50;;;;;;4968803;28;20191;-78
2022/03/06 06:40:31;;;;;;;26.08;12.18;;;-0.80;80.00;;;;;;4972444;28;20187;-78
2022/03/06 06:42:58;;;;;;;29.00;13.03;;;-0.70;80.00;;;;;;4968211;28;20211;-76
2022/03/06 06:45:23;;;;;;;26.33;12.23;;;-0.70;80.20;;;;;;4974877;28;20438;-78
2022/03/06 06:47:49;;;;;;;30.23;13.30;;;-0.70;80.20;;;;;;4975706;28;20560;-78
2022/03/06 06:50:15;;;;;;;27.70;13.20;;;-0.60;80.20;;;;;;4974656;28;20422;-77
2022/03/06 06:52:41;;;;;;;28.95;12.20;;;-0.60;80.00;;;;;;4979628;28;20203;-77
2022/03/06 06:55:08;;;;;;;30.20;12.73;;;-0.60;79.70;;;;;;4977837;28;20194;-78
2022/03/06 06:57:34;;;;;;;25.05;12.23;;;-0.60;79.50;;;;;;4980996;28;20179;-78
2022/03/06 07:00:01;;;;;;;31.83;12.87;;;-0.50;79.50;;;;;;4987467;28;20214;-79
2022/03/06 07:02:27;;;;;;;30.05;14.20;;;-0.40;79.60;;;;;;4971066;28;20183;-77
2022/03/06 07:04:52;;;;;;;30.23;13.80;;;-0.40;79.70;;;;;;4975439;28;20672;-77
2022/03/06 07:07:18;;;;;;;27.53;12.70;;;-0.40;79.60;;;;;;4973058;28;20685;-79
2022/03/06 07:09:44;;;;;;;27.92;13.75;;;-0.40;79.50;;;;;;4973237;28;20911;-78
2022/03/06 07:12:11;;;;;;;32.53;13.10;;;-0.40;79.30;;;;;;4974805;28;20230;-77
2022/03/06 07:14:37;;;;;;;34.70;12.93;;;-0.30;79.20;;;;;;4972369;28;20183;-78
2022/03/06 07:17:03;;;;;;;29.57;13.37;;;-0.30;78.70;;;;;;4978492;28;20214;-77
2022/03/06 07:19:29;;;;;;;27.95;12.32;;;-0.30;78.70;;;;;;4981591;28;20441;-77
2022/03/06 07:21:54;;;;;;;37.23;14.27;;;-0.20;78.40;;;;;;4985328;28;20321;-77
2022/03/06 07:24:20;;;;;;;26.80;13.00;;;-0.20;78.30;;;;;;4966536;28;20234;-77
2022/03/06 07:26:46;;;;;;;34.50;14.00;;;-0.10;78.10;;;;;;4969070;28;20171;-77
2022/03/06 07:29:12;;;;;;;31.03;14.00;;;-0.10;77.80;;;;;;4972909;28;20447;-79
2022/03/06 07:31:37;;;;;;;29.80;14.37;;;-0.10;77.70;;;;;;4974063;28;20179;-77
2022/03/06 07:34:04;;;;;;;32.87;13.10;;;0.00;77.60;;;;;;4973034;28;20245;-78
2022/03/06 07:36:29;;;;;;;29.95;13.25;;;0.00;77.40;;;;;;4974052;28;20637;-77
2022/03/06 07:38:55;;;;;;;27.37;13.10;;;0.10;77.40;;;;;;4968498;28;20203;-77
2022/03/06 07:41:21;;;;;;;27.30;12.87;;;0.10;77.00;;;;;;4973749;28;20218;-78
2022/03/06 07:43:46;;;;;;;27.93;12.83;;;0.20;76.80;;;;;;4975337;28;20250;-76
2022/03/06 07:46:12;;;;;;;31.93;13.57;;;0.30;76.20;;;;;;4969159;28;20180;-77
2022/03/06 07:48:38;;;;;;;31.90;14.10;;;0.30;75.50;;;;;;4965891;28;20207;-79
2022/03/06 07:51:04;;;;;;;27.87;13.63;;;0.40;75.40;;;;;;4977125;28;20226;-77
2022/03/06 07:53:30;;;;;;;32.05;13.75;;;0.40;74.90;;;;;;4972595;28;20203;-77
2022/03/06 07:55:56;;;;;;;34.27;14.47;;;0.50;74.80;;;;;;4975085;28;20195;-78
2022/03/06 07:58:22;;;;;;;31.73;13.50;;;0.50;74.90;;;;;;4972115;28;20466;-77
2022/03/06 08:00:48;;;;;;;32.00;14.37;;;0.50;75.10;;;;;;4982828;28;20214;-79
2022/03/06 08:03:15;;;;;;;29.43;13.77;;;0.60;75.20;;;;;;4971778;28;20426;-78
2022/03/06 08:05:42;;;;;;;28.23;14.07;;;0.60;75.20;;;;;;4973335;28;20429;-79
2022/03/06 08:08:07;;;;;;;27.67;12.65;;;0.70;75.10;;;;;;4972533;28;20215;-79
2022/03/06 08:10:33;;;;;;;27.20;12.67;;;0.80;74.90;;;;;;4968574;28;20176;-77
2022/03/06 08:12:59;;;;;;;29.40;12.80;;;1.00;74.50;;;;;;4974086;28;20218;-78
2022/03/06 08:15:25;;;;;;;32.67;12.83;;;1.10;74.00;;;;;;4973580;28;20423;-78
2022/03/06 08:17:50;;;;;;;28.80;14.53;;;1.20;73.50;;;;;;4972529;28;20199;-79
2022/03/06 08:20:16;;;;;;;31.10;13.13;;;1.30;73.20;;;;;;4968683;28;20229;-79
2022/03/06 08:22:42;;;;;;;27.60;13.43;;;1.40;72.60;;;;;;4962668;28;20190;-78
2022/03/06 08:25:08;;;;;;;28.50;12.60;;;1.40;72.40;;;;;;4971749;28;20704;-79
2022/03/06 08:27:34;;;;;;;33.88;14.63;;;1.50;72.40;;;;;;4970434;28;20191;-78
2022/03/06 08:30:02;;;;;;;25.43;13.37;;;1.60;72.00;;;;;;4966273;28;20212;-80
2022/03/06 08:32:27;;;;;;;29.17;12.85;;;1.70;71.40;;;;;;4970948;28;20681;-80
2022/03/06 08:34:53;;;;;;;24.47;13.73;;;1.70;71.40;;;;;;4963774;28;20202;-78
2022/03/06 08:37:20;;;;;;;28.80;13.30;;;1.80;71.40;;;;;;4967046;28;20184;-77
2022/03/06 08:39:47;;;;;;;34.42;12.93;;;1.90;71.30;;;;;;4968236;28;20203;-79
2022/03/06 08:42:13;;;;;;;26.50;12.45;;;1.90;70.80;;;;;;4973164;28;20187;-79
2022/03/06 08:44:39;;;;;;;27.77;12.80;;;2.00;69.80;;;;;;4973125;28;20982;-77
2022/03/06 08:47:06;;;;;;;33.23;14.20;;;2.20;69.20;;;;;;4974677;28;20222;-79
2022/03/06 08:49:32;;;;;;;34.95;14.43;;;2.20;68.60;;;;;;4974138;28;20473;-80
2022/03/06 08:51:58;;;;;;;29.23;13.00;;;2.30;68.50;;;;;;4967097;28;20690;-80
2022/03/06 08:54:24;;;;;;;23.20;11.27;;;2.50;68.20;;;;;;4966252;28;20644;-80
2022/03/06 08:56:50;;;;;;;26.65;13.15;;;2.50;67.20;;;;;;4966344;28;20508;-78
2022/03/06 08:59:16;;;;;;;33.33;14.40;;;2.60;66.90;;;;;;4972935;28;20266;-79
2022/03/06 09:01:42;;;;;;;26.10;12.73;;;2.60;66.90;;;;;;4964504;28;20183;-80
2022/03/06 09:04:07;;;;;;;29.73;11.97;;;2.60;66.00;;;;;;4967338;28;20195;-77
2022/03/06 09:06:33;;;;;;;26.50;13.60;;;2.60;66.10;;;;;;4970568;28;20625;-76
2022/03/06 09:08:59;;;;;;;26.30;11.97;;;2.70;66.90;;;;;;4963959;28;20969;-76
2022/03/06 09:11:25;;;;;;;25.63;11.80;;;2.70;66.70;;;;;;4967545;28;20279;-78
2022/03/06 09:13:50;;;;;;;27.70;13.13;;;2.80;65.40;;;;;;4961359;28;20287;-77
2022/03/06 09:16:16;;;;;;;22.43;12.60;;;2.90;65.70;;;;;;4966881;28;20665;-77
2022/03/06 09:18:43;;;;;;;28.10;12.33;;;3.00;65.40;;;;;;4966366;28;20203;-76
2022/03/06 09:21:10;;;;;;;34.53;14.37;;;3.00;65.00;;;;;;4970028;28;20297;-75
2022/03/06 09:23:35;;;;;;;32.50;13.53;;;3.00;65.00;;;;;;4975765;28;20430;-77
2022/03/06 09:26:01;;;;;;;29.87;13.60;;;3.10;64.70;;;;;;4970532;28;20532;-78
2022/03/06 09:28:27;;;;;;;32.23;12.90;;;3.20;64.50;;;;;;4973304;28;20286;-76
2022/03/06 09:30:53;;;;;;;21.60;11.50;;;3.30;64.10;;;;;;4980422;28;20240;-75
2022/03/06 09:33:18;;;;;;;26.10;12.47;;;3.50;63.50;;;;;;4976623;28;20218;-77
2022/03/06 09:35:44;;;;;;;30.47;13.33;;;3.50;62.60;;;;;;4965560;28;20180;-74
2022/03/06 09:38:10;;;;;;;26.50;11.70;;;3.60;62.20;;;;;;4981498;28;20237;-75
2022/03/06 09:40:38;;;;;;;25.17;12.20;;;3.70;62.00;;;;;;4975136;28;20491;-76
2022/03/06 09:43:03;;;;;;;24.50;11.50;;;3.70;61.70;;;;;;4969124;28;20184;-76
2022/03/06 09:45:32;;;;;;;28.40;11.73;;;3.70;61.50;;;;;;4974370;28;20772;-76
2022/03/06 09:47:59;;;;;;;23.77;11.20;;;3.70;60.70;;;;;;4965075;28;20213;-76
2022/03/06 09:50:26;;;;;;;26.20;12.10;;;3.50;61.30;;;;;;4967301;28;20420;-76
2022/03/06 09:52:52;;;;;;;25.47;10.50;;;3.60;61.60;;;;;;4974126;28;20497;-76
2022/03/06 09:55:17;;;;;;;25.13;11.33;;;3.70;60.60;;;;;;4970530;28;20914;-76
2022/03/06 09:57:43;;;;;;;28.30;12.70;;;3.70;59.90;;;;;;4973431;28;20190;-76
2022/03/06 10:00:09;;;;;;;24.00;11.00;;;3.80;59.70;;;;;;4972562;28;20262;-76
2022/03/06 10:03:03;;;;;;;20.90;10.60;;;4.00;58.90;;;;;;4970473;28;20218;-74
2022/03/06 10:05:37;;;;;;;24.43;10.97;;;4.10;56.60;;;;;;4967779;28;20470;-77
2022/03/06 10:08:16;;;;;;;25.57;12.17;;;4.20;55.80;;;;;;4973692;28;20438;-75
2022/03/06 10:10:43;;;;;;;22.13;11.30;;;4.30;55.80;;;;;;4966875;28;20803;-75
2022/03/06 10:13:42;;;;;;;25.17;12.63;;;4.40;55.70;;;;;;4975335;28;20490;-76
2022/03/06 10:16:14;;;;;;;21.90;10.63;;;4.40;54.90;;;;;;4933047;29;20959;-76
2022/03/06 10:18:43;;;;;;;23.37;11.23;;;4.60;54.50;;;;;;4918435;29;20444;-75
2022/03/06 10:21:13;;;;;;;28.07;11.70;;;4.60;53.30;;;;;;4932537;29;21404;-75
2022/03/06 10:23:40;;;;;;;21.73;10.70;;;4.70;52.50;;;;;;4931276;29;20555;-75
2022/03/06 10:26:13;;;;;;;22.63;11.20;;;4.60;52.40;;;;;;4929884;29;20439;-77
2022/03/06 10:28:53;;;;;;;23.13;10.87;;;4.60;52.20;;;;;;4930289;29;20621;-75
2022/03/06 10:31:20;;;;;;;28.37;12.60;;;4.70;51.80;;;;;;4924447;29;20423;-76
2022/03/06 10:34:05;;;;;;;23.87;11.70;;;4.60;50.90;;;;;;4914788;29;20496;-76
2022/03/06 10:36:36;;;;;;;25.70;12.10;;;4.70;51.00;;;;;;4930078;29;20487;-77
2022/03/06 10:39:23;;;;;;;22.20;11.00;;;4.60;50.90;;;;;;4930193;29;20507;-74
2022/03/06 10:41:56;;;;;;;24.10;12.07;;;4.60;51.00;;;;;;4930686;29;20436;-76
2022/03/06 10:44:42;;;;;;;20.33;10.00;;;4.70;50.20;;;;;;4929740;29;20546;-75
2022/03/06 10:47:08;;;;;;;23.13;11.23;;;4.80;49.30;;;;;;4929933;29;20812;-76
2022/03/06 10:49:34;;;;;;;22.93;10.53;;;5.20;48.20;;;;;;4912561;29;20452;-74
2022/03/06 10:52:29;;;;;;;21.83;10.40;;;5.50;48.70;;;;;;4947545;28;20200;-75
2022/03/06 10:54:57;;;;;;;26.50;11.80;;;6.10;47.70;;;;;;4934201;29;20197;-75
2022/03/06 10:57:24;;;;;;;23.60;11.73;;;6.70;46.50;;;;;;4934240;29;20829;-73
2022/03/06 10:59:50;;;;;;;24.17;11.83;;;7.10;45.30;;;;;;4939377;29;20468;-75
2022/03/06 11:02:17;;;;;;;23.07;11.80;;;7.10;44.90;;;;;;4931032;29;20428;-76
2022/03/06 11:04:46;;;;;;;22.20;11.80;;;6.80;45.50;;;;;;4930391;29;20491;-76
2022/03/06 11:07:12;;;;;;;22.80;11.13;;;6.60;45.00;;;;;;4925709;29;20424;-75
2022/03/06 11:09:39;;;;;;;21.00;11.23;;;6.10;45.70;;;;;;4931510;29;20455;-76
2022/03/06 11:12:06;;;;;;;22.47;11.03;;;5.80;46.60;;;;;;4927288;29;20436;-76
2022/03/06 11:14:32;;;;;;;20.00;10.53;;;5.60;46.60;;;;;;4925448;29;20444;-75
2022/03/06 11:16:58;;;;;;;19.20;9.83;;;5.50;46.50;;;;;;4931708;29;20846;-76
2022/03/06 11:19:26;;;;;;;25.63;10.90;;;5.10;47.40;;;;;;4931746;29;20440;-77
2022/03/06 11:22:00;;;;;;;21.80;9.57;;;5.10;47.70;;;;;;4915946;29;20424;-78
2022/03/06 11:24:28;;;;;;;19.73;10.90;;;5.10;47.90;;;;;;4928536;29;20451;-74
2022/03/06 11:26:54;;;;;;;21.90;10.37;;;5.10;47.80;;;;;;4913751;29;20548;-77
2022/03/06 11:29:50;;;;;;;21.70;10.40;;;5.10;46.90;;;;;;4929345;29;20448;-74
2022/03/06 11:32:24;;;;;;;19.33;9.73;;;5.00;47.00;;;;;;4954785;28;20195;-74
2022/03/06 11:34:52;;;;;;;20.63;10.57;;;5.20;46.90;;;;;;4962337;28;20458;-74
2022/03/06 11:37:18;;;;;;;17.50;9.77;;;5.30;46.60;;;;;;4961017;28;20873;-74
2022/03/06 11:39:48;;;;;;;18.40;9.50;;;5.80;45.90;;;;;;4967756;28;20438;-82
2022/03/06 11:42:48;;;;;;;23.03;11.30;;;6.20;45.00;;;;;;4968838;28;20534;-75
2022/03/06 11:45:43;;;;;;;22.17;11.17;;;6.70;43.70;;;;;;4958310;28;20951;-77
2022/03/06 11:48:08;;;;;;;22.77;11.33;;;6.60;42.60;;;;;;4964203;28;20434;-77
2022/03/06 11:50:34;;;;;;;20.00;9.83;;;6.60;43.20;;;;;;4962603;28;20832;-75
2022/03/06 11:53:18;;;;;;;20.40;10.30;;;6.80;42.60;;;;;;4967870;28;20214;-76
2022/03/06 11:55:44;;;;;;;17.37;9.77;;;7.10;41.50;;;;;;4959391;28;21005;-77
2022/03/06 11:58:09;;;;;;;17.53;9.80;;;7.60;41.20;;;;;;4964576;28;20545;-76
2022/03/06 12:00:37;;;;;;;18.97;10.53;;;8.10;39.90;;;;;;4958777;28;20188;-76
2022/03/06 12:03:02;;;;;;;20.00;10.27;;;8.10;39.10;;;;;;4962080;28;20199;-76
2022/03/06 12:05:52;;;;;;;19.57;9.80;;;7.70;39.20;;;;;;4963839;28;20419;-77
2022/03/06 12:08:18;;;;;;;19.07;10.30;;;7.80;39.20;;;;;;4956790;28;20206;-76
2022/03/06 12:10:44;;;;;;;19.57;9.83;;;7.80;38.70;;;;;;4960530;28;20431;-76
2022/03/06 12:13:23;;;;;;;15.13;9.33;;;7.80;38.60;;;;;;4972857;28;20293;-77
2022/03/06 12:16:05;;;;;;;17.60;9.73;;;7.90;38.80;;;;;;4959353;28;20427;-76
2022/03/06 12:18:32;;;;;;;19.40;10.33;;;8.10;38.60;;;;;;4965556;28;20447;-76
2022/03/06 12:20:58;;;;;;;20.10;10.77;;;7.80;39.10;;;;;;4971241;28;20433;-75
2022/03/06 12:23:28;;;;;;;18.83;10.90;;;7.60;39.80;;;;;;4964264;28;20853;-77
2022/03/06 12:25:58;;;;;;;19.50;10.57;;;7.30;40.30;;;;;;4966326;28;20430;-77
2022/03/06 12:28:36;;;;;;;20.67;10.87;;;7.50;40.30;;;;;;4960738;28;20490;-77
2022/03/06 12:31:42;;;;;;;22.63;10.50;;;7.40;40.30;;;;;;4966196;28;20437;-77
2022/03/06 12:34:46;;;;;;;18.27;9.60;;;7.00;41.00;;;;;;4967955;28;20488;-76